createdAt,value
2019-03-25T00:00:24.708Z,68.83
2019-03-25T00:05:34.241Z,51.13
2019-03-25T00:10:42.527Z,103.67
2019-03-25T00:15:50.198Z,81.23
2019-03-25T00:20:57.767Z,74.07
2019-03-25T00:26:06.548Z,24.30
2019-03-25T00:31:14.781Z,20.95
2019-03-25T00:36:22.472Z,20.67
2019-03-25T00:41:30.084Z,24.17
2019-03-25T00:46:37.738Z,23.83
2019-03-25T00:51:45.394Z,21.20
2019-03-25T00:56:53.042Z,17.97
2019-03-25T01:02:00.769Z,17.23
2019-03-25T01:07:08.395Z,17.87
2019-03-25T01:12:17.503Z,21.87
2019-03-25T01:17:25.163Z,16.43
2019-03-25T01:22:33.706Z,22.03
2019-03-25T01:27:41.861Z,26.68
2019-03-25T01:32:49.627Z,22.43
2019-03-25T01:37:57.280Z,46.77
2019-03-25T01:43:06.455Z,43.00
2019-03-25T01:48:14.270Z,48.77
2019-03-25T01:53:22.136Z,35.07
2019-03-25T01:58:29.762Z,26.90
2019-03-25T02:03:37.485Z,18.87
2019-03-25T02:08:45.237Z,22.50
2019-03-25T02:13:53.087Z,21.00
2019-03-25T02:19:01.069Z,16.70
2019-03-25T02:24:08.879Z,19.73
2019-03-25T02:29:16.693Z,18.87
2019-03-25T02:34:24.588Z,19.97
2019-03-25T02:39:32.352Z,18.10
2019-03-25T02:44:40.118Z,19.17
2019-03-25T02:49:47.900Z,14.50
2019-03-25T02:54:55.673Z,15.60
2019-03-25T03:00:07.953Z,19.57
2019-03-25T03:05:15.978Z,42.83
2019-03-25T03:10:23.758Z,18.87
2019-03-25T03:15:31.312Z,70.53
2019-03-25T03:20:38.975Z,79.93
2019-03-25T03:25:56.987Z,26.27
2019-03-25T03:30:56.313Z,14.70
2019-03-25T03:36:03.970Z,14.93
2019-03-25T03:41:11.697Z,28.60
2019-03-25T03:46:19.349Z,25.13
2019-03-25T03:51:27.085Z,30.00
2019-03-25T03:56:34.933Z,27.90
2019-03-25T04:01:42.690Z,20.20
2019-03-25T04:06:50.334Z,16.73
2019-03-25T04:11:58.146Z,16.37
2019-03-25T04:17:06.771Z,23.32
2019-03-25T04:22:14.417Z,19.53
2019-03-25T04:27:24.238Z,14.13
2019-03-25T04:32:32.008Z,14.20
2019-03-25T04:37:39.888Z,18.40
2019-03-25T04:42:47.560Z,17.87
2019-03-25T04:47:55.299Z,24.47
2019-03-25T04:53:03.048Z,21.20
2019-03-25T04:58:10.732Z,22.43
2019-03-25T05:03:18.398Z,34.27
2019-03-25T05:08:26.207Z,24.27
2019-03-25T05:13:34.189Z,30.07
2019-03-25T05:18:41.912Z,26.47
2019-03-25T05:23:49.560Z,24.87
2019-03-25T05:28:58.609Z,20.97
2019-03-25T05:34:06.550Z,23.80
2019-03-25T05:39:14.371Z,41.27
2019-03-25T05:44:22.178Z,34.00
2019-03-25T05:49:30.932Z,31.47
2019-03-25T05:54:38.657Z,27.97
2019-03-25T05:59:46.299Z,34.63
2019-03-25T06:04:54.297Z,28.33
2019-03-25T06:10:07.619Z,28.17
2019-03-25T06:15:15.504Z,49.10
2019-03-25T06:20:23.343Z,68.30
2019-03-25T06:25:31.207Z,68.47
2019-03-25T06:30:38.842Z,105.57
2019-03-25T06:35:47.573Z,107.27
2019-03-25T06:40:56.392Z,68.37
2019-03-25T06:46:06.690Z,22.27
2019-03-25T06:51:14.592Z,32.30
2019-03-25T06:56:22.295Z,34.35
2019-03-25T07:01:30.065Z,21.37
2019-03-25T07:06:37.855Z,17.43
2019-03-25T07:11:45.879Z,23.73
2019-03-25T07:16:53.659Z,22.03
2019-03-25T07:22:01.755Z,25.47
2019-03-25T07:27:09.502Z,28.53
2019-03-25T07:32:17.338Z,24.13
2019-03-25T07:37:25.014Z,19.27
2019-03-25T07:42:33.019Z,23.23
2019-03-25T07:47:40.609Z,24.97
2019-03-25T07:52:48.238Z,18.70
2019-03-25T07:57:55.913Z,18.53
2019-03-25T08:03:03.523Z,25.87
2019-03-25T08:08:11.099Z,21.93
2019-03-25T08:13:18.886Z,23.23
2019-03-25T08:18:26.699Z,21.60
2019-03-25T08:23:34.346Z,18.63
2019-03-25T08:28:42.023Z,26.30
2019-03-25T08:33:51.259Z,21.77
2019-03-25T08:38:58.886Z,39.50
2019-03-25T08:44:07.421Z,28.80
2019-03-25T08:49:15.088Z,24.87
2019-03-25T08:54:22.989Z,37.90
2019-03-25T08:59:30.628Z,13.47
2019-03-25T09:04:38.274Z,17.37
2019-03-25T09:09:46.047Z,23.10
2019-03-25T09:14:53.910Z,22.43
2019-03-25T09:20:01.620Z,19.75
2019-03-25T09:25:09.802Z,16.97
2019-03-25T09:30:42.615Z,18.00
2019-03-25T09:35:50.392Z,17.13
2019-03-25T09:40:58.138Z,7.63
2019-03-25T09:46:06.361Z,15.13
2019-03-25T09:51:14.394Z,12.13
2019-03-25T09:56:22.020Z,11.97
2019-03-25T10:01:29.756Z,10.33
2019-03-25T10:06:37.582Z,11.17
2019-03-25T10:11:45.299Z,8.67
2019-03-25T10:16:53.041Z,9.83
2019-03-25T10:22:00.647Z,10.20
2019-03-25T10:27:08.700Z,7.03
2019-03-25T10:32:16.537Z,7.67
2019-03-25T10:37:24.299Z,7.67
2019-03-25T10:42:31.867Z,7.77
2019-03-25T10:47:39.516Z,6.83
2019-03-25T10:52:47.164Z,32.17
2019-03-25T10:57:54.888Z,7.93
2019-03-25T11:03:02.834Z,8.53
2019-03-25T11:08:10.649Z,5.87
2019-03-25T11:13:18.295Z,7.80
2019-03-25T11:18:26.107Z,12.27
2019-03-25T11:23:34.070Z,8.17
2019-03-25T11:28:41.971Z,6.50
2019-03-25T11:33:49.719Z,6.67
2019-03-25T11:38:57.853Z,44.47
2019-03-25T11:44:05.740Z,11.23
2019-03-25T11:49:13.580Z,29.20
2019-03-25T11:54:22.889Z,9.33
2019-03-25T11:59:30.643Z,8.83
2019-03-25T12:04:38.676Z,11.40
2019-03-25T12:09:46.985Z,9.13
2019-03-25T12:14:54.735Z,39.60
2019-03-25T12:20:02.511Z,11.20
2019-03-25T12:25:10.551Z,8.60
2019-03-25T12:30:18.789Z,16.17
2019-03-25T12:35:26.634Z,10.33
2019-03-25T12:40:36.403Z,18.00
2019-03-25T12:45:44.221Z,7.33
2019-03-25T12:50:51.868Z,11.00
2019-03-25T12:55:59.634Z,6.87
2019-03-25T13:01:07.418Z,8.43
2019-03-25T13:06:15.193Z,5.70
2019-03-25T13:11:22.813Z,3.72
2019-03-25T13:16:30.758Z,6.30
2019-03-25T13:21:38.405Z,10.23
2019-03-25T13:26:46.067Z,11.80
2019-03-25T13:31:53.770Z,8.93
2019-03-25T13:37:01.422Z,10.33
2019-03-25T13:42:09.259Z,16.33
2019-03-25T13:47:17.616Z,15.08
2019-03-25T13:52:25.250Z,11.20
2019-03-25T13:57:33.126Z,9.63
2019-03-25T14:02:40.916Z,11.17
2019-03-25T14:07:48.609Z,13.13
2019-03-25T14:12:56.390Z,12.37
2019-03-25T14:18:04.066Z,10.10
2019-03-25T14:23:12.119Z,8.83
2019-03-25T14:28:19.910Z,11.28
2019-03-25T14:33:27.472Z,11.63
2019-03-25T14:38:35.222Z,12.67
2019-03-25T14:43:43.460Z,9.83
2019-03-25T14:48:52.426Z,11.60
2019-03-25T14:54:00.153Z,11.50
2019-03-25T14:59:08.884Z,13.77
2019-03-25T15:04:16.721Z,14.80
2019-03-25T15:09:24.710Z,14.50
2019-03-25T15:14:33.527Z,24.00
2019-03-25T15:19:41.330Z,12.90
2019-03-25T15:24:48.951Z,24.10
2019-03-25T15:29:56.623Z,20.20
2019-03-25T15:35:04.693Z,13.10
2019-03-25T15:40:13.734Z,16.30
2019-03-25T15:45:23.442Z,12.95
2019-03-25T15:50:31.581Z,16.07
2019-03-25T15:55:40.358Z,20.40
2019-03-25T16:00:48.709Z,18.10
2019-03-25T16:05:57.006Z,14.13
2019-03-25T16:11:06.516Z,9.50
2019-03-25T16:16:14.181Z,13.33
2019-03-25T16:21:21.939Z,12.70
2019-03-25T16:26:29.594Z,13.30
2019-03-25T16:31:37.290Z,16.43
2019-03-25T16:36:45.370Z,18.77
2019-03-25T16:41:53.147Z,18.73
2019-03-25T16:47:00.810Z,18.23
2019-03-25T16:52:08.611Z,13.37
2019-03-25T16:57:16.392Z,10.85
2019-03-25T17:02:24.093Z,17.03
2019-03-25T17:07:31.800Z,10.40
2019-03-25T17:12:40.596Z,10.97
2019-03-25T17:17:48.270Z,17.23
2019-03-25T17:22:55.914Z,12.43
2019-03-25T17:33:47.179Z,12.10
2019-03-25T17:38:54.942Z,12.67
2019-03-25T17:44:03.745Z,10.93
2019-03-25T17:49:11.917Z,19.30
2019-03-25T17:54:19.590Z,23.23
2019-03-25T17:59:27.466Z,13.00
2019-03-25T18:04:35.624Z,23.47
2019-03-25T18:09:44.039Z,19.33
2019-03-25T18:14:51.875Z,19.03
2019-03-25T18:20:00.209Z,23.53
2019-03-25T18:25:09.157Z,23.47
2019-03-25T18:30:17.166Z,25.00
2019-03-25T18:35:27.881Z,19.43
2019-03-25T18:40:35.472Z,13.77
2019-03-25T18:45:43.436Z,29.03
2019-03-25T18:50:51.647Z,26.23
2019-03-25T18:55:59.315Z,28.23
2019-03-25T19:01:06.914Z,17.87
2019-03-25T19:06:15.409Z,22.87
2019-03-25T19:11:30.851Z,19.73
2019-03-25T19:16:32.308Z,22.83
2019-03-25T19:21:40.343Z,15.37
2019-03-25T19:26:48.514Z,25.00
2019-03-25T19:32:06.190Z,20.30
2019-03-25T19:37:06.318Z,49.97
2019-03-25T19:42:15.078Z,20.72
2019-03-25T19:47:22.823Z,19.02
2019-03-25T19:52:30.554Z,16.17
2019-03-25T19:57:38.229Z,16.57
2019-03-25T20:02:45.897Z,15.93
2019-03-25T20:07:53.535Z,14.80
2019-03-25T20:13:01.200Z,22.87
2019-03-25T20:18:08.879Z,16.70
2019-03-25T20:23:16.754Z,24.07
2019-03-25T20:28:24.473Z,27.43
2019-03-25T20:33:32.427Z,45.60
2019-03-25T20:38:41.418Z,43.63
2019-03-25T20:43:49.149Z,28.70
2019-03-25T20:48:59.459Z,30.37
2019-03-25T20:54:08.495Z,48.73
2019-03-25T20:59:16.234Z,22.25
2019-03-25T21:04:24.099Z,17.80
2019-03-25T21:09:31.843Z,15.03
2019-03-25T21:14:39.549Z,15.33
2019-03-25T21:19:48.012Z,16.03
2019-03-25T21:24:55.909Z,18.17
2019-03-25T21:30:03.950Z,12.50
2019-03-25T21:35:12.190Z,12.13
2019-03-25T21:40:20.007Z,13.50
2019-03-25T21:45:28.429Z,17.57
2019-03-25T21:50:36.649Z,13.37
2019-03-25T21:55:46.326Z,8.43
2019-03-25T22:00:54.149Z,10.47
2019-03-25T22:06:03.380Z,13.20
2019-03-25T22:11:11.154Z,9.28
2019-03-25T22:16:18.969Z,6.90
2019-03-25T22:21:27.025Z,5.97
2019-03-25T22:26:34.639Z,9.27
2019-03-25T22:31:42.489Z,6.63
2019-03-25T22:36:50.119Z,9.03
2019-03-25T22:41:57.767Z,9.13
2019-03-25T22:47:07.228Z,4.70
2019-03-25T22:52:14.977Z,7.10
2019-03-25T22:57:22.568Z,7.83
2019-03-25T23:02:30.535Z,5.40
2019-03-25T23:07:38.257Z,6.30
2019-03-25T23:12:45.977Z,9.47
2019-03-25T23:17:53.590Z,8.10
2019-03-25T23:23:01.283Z,10.27
2019-03-25T23:28:08.936Z,7.83
2019-03-25T23:33:16.774Z,5.10
2019-03-25T23:38:24.469Z,6.93
2019-03-25T23:43:32.415Z,8.03
2019-03-25T23:48:40.072Z,10.80
2019-03-25T23:53:47.697Z,9.93
2019-03-25T23:58:55.397Z,10.20
